Time;durP1;ratioP1;P1;durP2;ratioP2;P2;SDS_P1;SDS_P2;PMS_P1;PMS_P2;Temp;Humidity;BMP_temperature;BMP_pressure;BME280_temperature;BME280_humidity;BME280_pressure;Samples;Min_cycle;Max_cycle;Signal;HPM_P1;HPM_P2
2021/06/18 00:00:22;;;;;;;59.67;47.22;;;19.10;99.90;;;;;;5074545;28;20036;-75
2021/06/18 00:02:49;;;;;;;58.97;45.17;;;19.00;99.90;;;;;;5091956;28;20028;-77
2021/06/18 00:05:15;;;;;;;61.08;45.50;;;19.00;99.90;;;;;;5092736;28;20040;-75
2021/06/18 00:07:43;;;;;;;62.25;48.55;;;19.00;99.90;;;;;;5091902;28;20123;-74
2021/06/18 00:10:10;;;;;;;59.90;45.33;;;19.00;99.90;;;;;;5090964;28;20032;-77
2021/06/18 00:12:36;;;;;;;59.95;46.92;;;18.90;99.90;;;;;;5092073;28;20036;-76
2021/06/18 00:15:04;;;;;;;56.00;46.53;;;18.90;99.90;;;;;;5092053;28;20473;-75
2021/06/18 00:17:30;;;;;;;54.67;45.17;;;18.90;99.90;;;;;;5073218;28;20060;-73
2021/06/18 00:19:56;;;;;;;63.55;47.17;;;18.90;99.90;;;;;;5091486;28;20070;-73
2021/06/18 00:22:21;;;;;;;;;;;18.80;99.90;;;;;;5092447;28;20058;-74
2021/06/18 00:24:47;;;;;;;59.83;46.67;;;18.80;99.90;;;;;;5090844;28;19928;-74
2021/06/18 00:27:13;;;;;;;;;;;18.80;99.90;;;;;;5079015;28;20036;-75
2021/06/18 00:29:39;;;;;;;61.13;46.03;;;18.70;99.90;;;;;;5091637;28;19993;-73
2021/06/18 00:32:05;;;;;;;63.08;47.80;;;18.70;99.90;;;;;;5090035;28;20090;-73
2021/06/18 00:34:31;;;;;;;59.63;45.28;;;18.70;99.90;;;;;;5085634;28;20051;-74
2021/06/18 00:36:57;;;;;;;58.80;46.38;;;18.70;99.90;;;;;;5091239;28;20043;-75
2021/06/18 00:39:23;;;;;;;66.00;47.00;;;18.70;99.90;;;;;;5091852;28;20397;-74
2021/06/18 00:41:48;;;;;;;;;;;18.70;99.90;;;;;;5090583;28;20035;-76
2021/06/18 00:44:15;;;;;;;63.17;46.25;;;18.70;99.90;;;;;;5073905;28;20365;-75
2021/06/18 00:46:41;;;;;;;62.35;46.35;;;18.60;99.90;;;;;;5091102;28;20040;-76
2021/06/18 00:49:10;;;;;;;58.70;44.30;;;18.60;99.90;;;;;;5092169;28;20055;-74
2021/06/18 00:51:40;;;;;;;59.67;44.78;;;18.60;99.90;;;;;;5090775;28;20043;-73
2021/06/18 00:54:06;;;;;;;56.60;45.17;;;18.50;99.90;;;;;;5091722;28;20301;-76
2021/06/18 00:56:33;;;;;;;59.38;44.78;;;18.50;99.90;;;;;;5090172;28;20036;-74
2021/06/18 00:59:00;;;;;;;55.65;43.67;;;18.50;99.90;;;;;;5089384;28;20028;-75
2021/06/18 01:01:26;;;;;;;54.10;42.60;;;18.50;99.90;;;;;;5091519;28;20492;-76
2021/06/18 01:03:52;;;;;;;56.25;43.28;;;18.50;99.90;;;;;;5090823;28;20048;-77
2021/06/18 01:06:26;;;;;;;57.17;44.55;;;18.40;99.90;;;;;;5091329;28;20085;-76
2021/06/18 01:08:58;;;;;;;59.78;43.72;;;18.40;99.90;;;;;;5090818;28;20035;-75
2021/06/18 01:11:43;;;;;;;57.58;44.22;;;18.40;99.90;;;;;;5090352;28;20032;-75
2021/06/18 01:14:16;;;;;;;55.38;44.15;;;18.40;99.90;;;;;;5091350;28;20043;-75
2021/06/18 01:16:52;;;;;;;57.92;44.40;;;18.40;99.90;;;;;;5090939;28;20115;-73
2021/06/18 01:19:27;;;;;;;55.40;44.97;;;18.30;99.90;;;;;;5056888;28;20041;-74
2021/06/18 01:22:00;;;;;;;58.17;43.33;;;18.30;99.90;;;;;;5090296;28;20038;-75
2021/06/18 01:24:30;;;;;;;57.25;43.50;;;18.30;99.90;;;;;;5091256;28;20123;-76
2021/06/18 01:27:17;;;;;;;59.95;43.58;;;18.30;99.90;;;;;;5075868;28;20273;-73
2021/06/18 01:30:03;;;;;;;60.67;45.72;;;18.30;99.90;;;;;;5084948;28;20036;-74
2021/06/18 01:32:38;;;;;;;57.97;45.30;;;18.30;99.90;;;;;;5085436;28;20124;-74
2021/06/18 01:35:07;;;;;;;60.90;44.90;;;18.20;99.90;;;;;;5089094;28;20281;-73
2021/06/18 01:37:35;;;;;;;60.45;42.85;;;18.20;99.90;;;;;;5090342;28;20052;-76
2021/06/18 01:40:05;;;;;;;53.38;43.08;;;18.20;99.90;;;;;;5071688;28;20406;-74
2021/06/18 01:42:34;;;;;;;57.00;44.63;;;18.10;99.90;;;;;;5090968;28;20032;-76
2021/06/18 01:45:01;;;;;;;64.30;45.22;;;18.10;99.90;;;;;;5077534;28;20071;-76
2021/06/18 01:47:27;;;;;;;61.85;44.80;;;18.10;99.90;;;;;;5095165;28;20044;-74
2021/06/18 01:49:55;;;;;;;57.47;46.00;;;18.10;99.90;;;;;;5097124;28;20423;-74
2021/06/18 01:52:22;;;;;;;59.03;46.03;;;18.00;99.90;;;;;;5097531;28;20047;-77
2021/06/18 01:54:49;;;;;;;62.25;47.67;;;18.00;99.90;;;;;;5097013;28;20046;-76
2021/06/18 01:57:16;;;;;;;56.88;44.42;;;18.00;99.90;;;;;;5097036;28;20035;-73
2021/06/18 01:59:42;;;;;;;61.17;46.53;;;18.00;99.90;;;;;;5096948;28;20051;-73
2021/06/18 02:02:09;;;;;;;69.13;51.10;;;18.00;99.90;;;;;;5079577;28;20036;-77
2021/06/18 02:04:38;;;;;;;72.63;52.33;;;18.10;99.90;;;;;;5097272;28;20036;-76
2021/06/18 02:07:06;;;;;;;70.82;50.20;;;18.00;99.90;;;;;;5097207;28;20074;-76
2021/06/18 02:09:35;;;;;;;67.10;51.35;;;18.00;99.90;;;;;;5097528;28;20043;-75
2021/06/18 02:12:01;;;;;;;72.80;54.17;;;17.90;99.90;;;;;;5096424;28;20040;-74
2021/06/18 02:14:30;;;;;;;70.25;51.58;;;17.90;99.90;;;;;;5070668;28;20040;-76
2021/06/18 02:16:59;;;;;;;70.55;53.08;;;17.90;99.90;;;;;;5093207;28;20069;-74
2021/06/18 02:19:25;;;;;;;66.43;50.38;;;17.80;99.90;;;;;;5097536;28;20047;-75
2021/06/18 02:21:54;;;;;;;68.50;51.83;;;17.80;99.90;;;;;;5096664;28;20379;-74
2021/06/18 02:24:24;;;;;;;63.20;50.95;;;17.80;99.90;;;;;;5097506;28;20153;-76
2021/06/18 02:26:52;;;;;;;61.65;47.92;;;17.80;99.90;;;;;;5081871;28;20481;-74
2021/06/18 02:29:18;;;;;;;63.67;49.75;;;17.80;99.90;;;;;;5097064;28;20043;-75
2021/06/18 02:31:44;;;;;;;;;;;17.80;99.90;;;;;;5097130;28;20032;-76
2021/06/18 02:34:11;;;;;;;65.88;49.15;;;17.80;99.90;;;;;;5089164;28;19999;-73
2021/06/18 02:36:40;;;;;;;65.38;49.28;;;17.80;99.90;;;;;;5096236;28;20146;-74
2021/06/18 02:39:08;;;;;;;60.05;46.47;;;17.80;99.90;;;;;;5097413;28;20093;-75
2021/06/18 02:41:35;;;;;;;66.25;48.78;;;17.80;99.90;;;;;;5095910;28;20578;-72
2021/06/18 02:44:02;;;;;;;64.20;48.00;;;17.80;99.90;;;;;;5096648;28;20592;-73
2021/06/18 02:46:34;;;;;;;61.72;46.80;;;17.90;99.90;;;;;;5096983;28;20082;-74
2021/06/18 02:49:01;;;;;;;58.25;44.50;;;17.90;99.90;;;;;;5096533;28;20507;-73
2021/06/18 02:51:36;;;;;;;59.95;46.67;;;17.90;99.90;;;;;;5083328;28;20035;-74
2021/06/18 02:54:08;;;;;;;55.97;44.88;;;17.90;99.90;;;;;;5096762;28;20071;-75
2021/06/18 02:56:38;;;;;;;59.47;44.95;;;17.90;99.90;;;;;;5095700;28;20120;-76
2021/06/18 02:59:22;;;;;;;58.08;46.60;;;17.90;99.90;;;;;;5093121;28;20461;-73
2021/06/18 03:01:51;;;;;;;58.20;45.42;;;17.90;99.90;;;;;;5092956;28;20046;-71
2021/06/18 03:04:23;;;;;;;59.10;44.28;;;17.90;99.90;;;;;;5093459;28;20452;-75
2021/06/18 03:06:52;;;;;;;54.15;42.67;;;18.00;99.90;;;;;;5092884;28;20401;-76
2021/06/18 03:09:34;;;;;;;55.10;43.72;;;18.00;99.90;;;;;;5093004;28;20416;-75
2021/06/18 03:12:01;;;;;;;63.05;43.17;;;18.00;99.90;;;;;;5091972;28;20036;-74
2021/06/18 03:14:31;;;;;;;55.67;44.20;;;18.00;99.90;;;;;;5093456;28;20111;-74
2021/06/18 03:17:00;;;;;;;59.42;42.95;;;18.10;99.90;;;;;;5092665;28;20081;-72
2021/06/18 03:19:41;;;;;;;52.47;43.22;;;18.00;99.90;;;;;;5075225;28;20176;-75
2021/06/18 03:22:08;;;;;;;54.88;42.08;;;18.10;99.90;;;;;;5093379;28;20047;-74
2021/06/18 03:24:35;;;;;;;53.70;42.97;;;18.10;99.90;;;;;;5093446;28;20392;-73
2021/06/18 03:27:02;;;;;;;54.00;43.10;;;18.10;99.90;;;;;;5077916;28;20040;-76
2021/06/18 03:29:30;;;;;;;51.65;41.80;;;18.00;99.90;;;;;;5093151;28;20388;-76
2021/06/18 03:31:59;;;;;;;53.88;42.47;;;18.10;99.90;;;;;;5057632;28;20068;-76
2021/06/18 03:34:26;;;;;;;52.10;41.83;;;18.00;99.90;;;;;;5086624;28;20082;-76
2021/06/18 03:36:53;;;;;;;56.80;44.20;;;18.00;99.90;;;;;;5092705;28;20048;-72
2021/06/18 03:39:21;;;;;;;57.08;42.67;;;18.00;99.90;;;;;;5093038;28;20048;-74
2021/06/18 03:41:47;;;;;;;51.67;41.45;;;18.00;99.90;;;;;;5091508;28;20389;-76
2021/06/18 03:44:15;;;;;;;52.97;43.33;;;18.00;99.90;;;;;;5092961;28;20040;-72
2021/06/18 03:46:42;;;;;;;51.22;41.47;;;18.00;99.90;;;;;;5092970;28;20063;-74
2021/06/18 03:49:10;;;;;;;50.95;41.85;;;18.10;99.90;;;;;;5092863;28;20039;-75
2021/06/18 03:51:36;;;;;;;56.13;42.42;;;18.20;99.90;;;;;;5074700;28;20093;-73
2021/06/18 03:54:03;;;;;;;52.20;40.78;;;18.30;99.90;;;;;;5092327;28;20051;-75
2021/06/18 03:56:30;;;;;;;51.00;41.15;;;18.30;99.90;;;;;;5056893;28;20054;-74
2021/06/18 03:58:58;;;;;;;50.50;40.83;;;18.40;99.90;;;;;;5062910;28;20097;-74
2021/06/18 04:01:26;;;;;;;50.10;40.42;;;18.50;99.90;;;;;;5093292;28;20115;-75
2021/06/18 04:03:53;;;;;;;51.38;40.15;;;18.60;99.90;;;;;;5092386;28;20108;-73
2021/06/18 04:06:20;;;;;;;48.33;39.83;;;18.60;99.90;;;;;;5092657;28;20043;-73
2021/06/18 04:08:47;;;;;;;46.13;38.85;;;18.60;99.90;;;;;;5092538;28;20060;-74
2021/06/18 04:11:14;;;;;;;49.50;38.58;;;18.60;99.90;;;;;;5091278;28;20027;-76
2021/06/18 04:13:41;;;;;;;45.63;37.80;;;18.60;99.90;;;;;;5092552;28;20051;-75
2021/06/18 04:16:08;;;;;;;44.97;38.53;;;18.70;99.90;;;;;;5092659;28;20032;-75
2021/06/18 04:18:36;;;;;;;45.33;36.20;;;18.80;99.90;;;;;;5092700;28;20047;-74
2021/06/18 04:21:07;;;;;;;44.58;36.65;;;18.80;99.90;;;;;;5092072;28;20105;-75
2021/06/18 04:23:33;;;;;;;43.33;35.70;;;18.90;99.90;;;;;;5092286;28;20429;-75
2021/06/18 04:26:00;;;;;;;45.90;37.28;;;19.00;99.90;;;;;;5072213;28;20118;-74
2021/06/18 04:28:26;;;;;;;45.45;36.63;;;19.00;99.90;;;;;;5092472;28;20089;-74
2021/06/18 04:30:52;;;;;;;47.70;37.08;;;19.10;99.90;;;;;;5073576;28;20506;-75
2021/06/18 04:33:18;;;;;;;48.28;37.83;;;19.10;99.90;;;;;;5056573;28;20071;-72
2021/06/18 04:35:45;;;;;;;46.60;38.60;;;19.20;99.90;;;;;;5081744;28;20109;-74
2021/06/18 04:38:13;;;;;;;47.38;37.33;;;19.20;99.90;;;;;;5091909;28;20044;-75
2021/06/18 04:40:39;;;;;;;44.35;38.10;;;19.20;99.90;;;;;;5091690;28;20044;-73
2021/06/18 04:43:06;;;;;;;48.75;37.83;;;19.20;99.90;;;;;;5091614;28;20047;-75
2021/06/18 04:45:32;;;;;;;46.70;39.33;;;19.30;99.90;;;;;;5091787;28;20054;-74
2021/06/18 04:47:58;;;;;;;45.28;39.20;;;19.30;99.90;;;;;;5055141;28;20478;-73
2021/06/18 04:50:24;;;;;;;40.92;36.42;;;19.30;99.90;;;;;;5082262;28;20044;-74
2021/06/18 04:52:50;;;;;;;41.58;35.78;;;19.30;99.90;;;;;;5090944;28;20056;-75
2021/06/18 04:55:18;;;;;;;44.05;37.08;;;19.30;99.90;;;;;;5090512;28;20460;-76
2021/06/18 04:57:45;;;;;;;45.95;37.05;;;19.30;99.90;;;;;;5091106;28;20043;-72
2021/06/18 05:00:12;;;;;;;44.53;36.40;;;19.30;99.90;;;;;;5091582;28;20043;-75
2021/06/18 05:02:37;;;;;;;40.78;35.03;;;19.30;99.90;;;;;;5091553;28;20032;-74
2021/06/18 05:05:04;;;;;;;42.42;35.63;;;19.30;99.90;;;;;;5090477;28;20048;-76
2021/06/18 05:07:30;;;;;;;40.72;34.30;;;19.30;99.90;;;;;;5090945;28;20064;-72
2021/06/18 05:09:55;;;;;;;44.50;36.03;;;19.40;99.90;;;;;;5090251;28;20074;-73
2021/06/18 05:12:22;;;;;;;;;;;19.50;99.90;;;;;;5055547;28;20074;-73
2021/06/18 05:14:47;;;;;;;40.88;34.58;;;19.60;99.90;;;;;;5061349;28;19916;-76
2021/06/18 05:17:13;;;;;;;;;;;19.70;99.90;;;;;;5089877;28;20039;-75
2021/06/18 05:19:39;;;;;;;40.95;34.20;;;19.70;99.90;;;;;;5091298;28;19916;-72
2021/06/18 05:22:05;;;;;;;;;;;19.60;99.90;;;;;;5090356;28;20040;-75
2021/06/18 05:24:31;;;;;;;40.22;34.22;;;19.60;99.90;;;;;;5091311;28;19943;-73
2021/06/18 05:26:56;;;;;;;;;;;19.70;99.90;;;;;;5076128;28;20036;-75
2021/06/18 05:29:23;;;;;;;43.72;36.95;;;19.60;99.90;;;;;;5091277;28;20264;-74
2021/06/18 05:31:48;;;;;;;;;;;19.60;99.90;;;;;;5091032;28;20028;-75
2021/06/18 05:34:14;;;;;;;46.50;37.40;;;19.60;99.90;;;;;;5083425;28;20265;-74
2021/06/18 05:36:44;;;;;;;44.30;37.08;;;19.50;99.90;;;;;;5090255;28;20062;-73
2021/06/18 05:39:11;;;;;;;45.70;35.47;;;19.40;99.90;;;;;;5073438;28;20058;-73
2021/06/18 05:41:38;;;;;;;45.35;35.10;;;19.40;99.90;;;;;;5072196;28;20093;-75
2021/06/18 05:44:04;;;;;;;41.53;33.50;;;19.40;99.90;;;;;;5090890;28;20032;-73
2021/06/18 05:46:30;;;;;;;43.00;34.60;;;19.40;99.90;;;;;;5097922;28;20051;-72
2021/06/18 05:48:56;;;;;;;46.90;37.10;;;19.40;99.90;;;;;;5074664;28;20032;-76
2021/06/18 05:51:22;;;;;;;48.67;36.10;;;19.50;99.90;;;;;;5091126;28;20130;-74
2021/06/18 05:53:48;;;;;;;44.10;35.70;;;19.60;99.90;;;;;;5090948;28;20119;-73
2021/06/18 05:56:13;;;;;;;;;;;19.60;99.90;;;;;;5090317;28;20032;-73
2021/06/18 05:58:39;;;;;;;39.28;29.95;;;19.60;99.90;;;;;;5061144;28;19916;-75
2021/06/18 06:01:05;;;;;;;;;;;19.70;99.90;;;;;;5090656;28;20469;-76
2021/06/18 06:03:30;;;;;;;37.80;29.27;;;19.80;99.90;;;;;;5090639;28;19916;-76
2021/06/18 06:05:56;;;;;;;;;;;19.90;99.90;;;;;;5090701;28;20507;-74
2021/06/18 06:08:22;;;;;;;35.42;29.63;;;19.90;99.90;;;;;;5091012;28;19920;-76
2021/06/18 06:10:48;;;;;;;33.45;28.38;;;19.90;99.90;;;;;;5089212;28;20040;-73
2021/06/18 06:13:16;;;;;;;32.30;27.25;;;19.90;99.90;;;;;;5090486;28;20037;-73
2021/06/18 06:15:42;;;;;;;36.20;27.70;;;20.00;99.90;;;;;;5091257;28;20400;-75
2021/06/18 06:18:08;;;;;;;32.28;25.17;;;20.10;99.90;;;;;;5090167;28;20040;-75
2021/06/18 06:20:34;;;;;;;;;;;20.10;99.90;;;;;;5090330;28;20512;-75
2021/06/18 06:22:59;;;;;;;32.63;27.33;;;20.10;99.90;;;;;;5090029;28;19916;-75
2021/06/18 06:25:25;;;;;;;;;;;20.10;99.90;;;;;;5083683;28;20040;-73
2021/06/18 06:27:51;;;;;;;29.55;23.98;;;20.10;99.90;;;;;;5083050;28;19920;-75
2021/06/18 06:30:17;;;;;;;27.65;24.00;;;20.20;99.90;;;;;;5098240;28;20044;-75
2021/06/18 06:32:43;;;;;;;31.70;24.98;;;20.10;99.90;;;;;;5061203;28;20043;-72
2021/06/18 06:35:09;;;;;;;30.55;23.67;;;20.10;99.90;;;;;;5092940;28;20044;-73
2021/06/18 06:37:35;;;;;;;26.02;22.13;;;20.20;99.90;;;;;;5063684;28;20044;-75
2021/06/18 06:40:01;;;;;;;23.17;20.70;;;20.30;99.90;;;;;;5092019;28;20386;-74
2021/06/18 06:42:28;;;;;;;23.83;21.27;;;20.30;99.90;;;;;;5094395;28;20413;-74
2021/06/18 06:44:53;;;;;;;23.63;19.88;;;20.40;99.90;;;;;;5093789;28;20050;-75
2021/06/18 06:47:19;;;;;;;20.00;17.90;;;20.50;99.90;;;;;;5094020;28;20439;-75
2021/06/18 06:49:46;;;;;;;;;;;20.70;99.90;;;;;;5057555;28;20044;-74
2021/06/18 06:52:12;;;;;;;19.70;17.60;;;21.00;99.90;;;;;;5085910;28;20448;-75
2021/06/18 06:54:38;;;;;;;;;;;21.40;99.90;;;;;;5057249;28;20120;-77
2021/06/18 06:57:04;;;;;;;18.50;16.60;;;21.40;99.90;;;;;;5085009;28;19922;-73
2021/06/18 06:59:29;;;;;;;20.25;18.15;;;21.40;99.90;;;;;;5092506;28;20379;-75
2021/06/18 07:01:55;;;;;;;;;;;21.40;99.90;;;;;;5094068;28;20051;-75
2021/06/18 07:04:21;;;;;;;18.52;16.63;;;21.40;99.90;;;;;;5075710;28;20365;-76
2021/06/18 07:06:46;;;;;;;;;;;21.50;99.90;;;;;;5076158;28;20548;-76
2021/06/18 07:09:14;;;;;;;17.95;16.15;;;21.60;99.90;;;;;;5092927;28;19969;-74
2021/06/18 07:11:40;;;;;;;16.13;14.52;;;21.70;99.90;;;;;;5092941;28;20115;-77
2021/06/18 07:14:06;;;;;;;17.38;15.68;;;22.00;99.90;;;;;;5093523;28;20047;-75
2021/06/18 07:16:32;;;;;;;15.90;14.07;;;22.30;99.90;;;;;;5093818;28;20040;-74
2021/06/18 07:18:58;;;;;;;15.45;13.95;;;22.40;99.90;;;;;;5093375;28;20092;-77
2021/06/18 07:21:23;;;;;;;15.80;14.23;;;22.20;99.90;;;;;;5093229;28;20472;-75
2021/06/18 07:23:49;;;;;;;15.05;13.55;;;22.20;99.90;;;;;;5093899;28;20056;-75
2021/06/18 07:26:15;;;;;;;16.90;13.93;;;22.40;99.90;;;;;;5091942;28;20114;-74
2021/06/18 07:28:40;;;;;;;14.75;13.30;;;22.40;99.90;;;;;;5093353;28;20032;-77
2021/06/18 07:31:06;;;;;;;13.98;12.68;;;22.50;99.90;;;;;;5093208;28;20055;-75
2021/06/18 07:33:35;;;;;;;12.73;11.52;;;22.60;99.90;;;;;;5061236;28;20040;-74
2021/06/18 07:36:01;;;;;;;14.02;11.98;;;22.60;99.90;;;;;;5086009;28;20067;-75
2021/06/18 07:38:27;;;;;;;12.25;11.07;;;22.60;99.90;;;;;;5093445;28;20036;-76
2021/06/18 07:40:53;;;;;;;12.82;11.27;;;22.50;99.90;;;;;;5091573;28;20047;-75
2021/06/18 07:43:19;;;;;;;12.80;11.55;;;22.50;99.90;;;;;;5093328;28;20043;-76
2021/06/18 07:45:45;;;;;;;12.73;11.43;;;22.40;99.90;;;;;;5061435;28;20036;-74
2021/06/18 07:48:11;;;;;;;12.18;10.98;;;22.30;99.90;;;;;;5060917;28;20097;-76
2021/06/18 07:50:38;;;;;;;11.57;10.48;;;22.40;99.90;;;;;;5093058;28;20553;-75
2021/06/18 07:53:04;;;;;;;12.18;10.90;;;22.50;99.90;;;;;;5092578;28;20059;-74
2021/06/18 07:55:31;;;;;;;11.15;10.05;;;22.70;99.90;;;;;;5091896;28;20048;-76
2021/06/18 07:57:57;;;;;;;12.45;11.13;;;22.90;99.90;;;;;;5092509;28;20036;-76
2021/06/18 08:00:23;;;;;;;10.98;9.93;;;23.10;99.90;;;;;;5092664;28;20044;-76
2021/06/18 08:02:49;;;;;;;12.38;11.20;;;23.20;99.90;;;;;;5092609;28;20028;-75
2021/06/18 08:05:15;;;;;;;11.80;10.70;;;23.40;99.90;;;;;;5091808;28;20477;-72
2021/06/18 08:07:43;;;;;;;12.75;11.25;;;23.60;99.90;;;;;;5092707;28;20040;-74
2021/06/18 08:10:12;;;;;;;12.57;11.18;;;23.80;99.90;;;;;;5090593;28;20066;-74
2021/06/18 08:12:38;;;;;;;11.02;10.02;;;23.60;99.90;;;;;;5096589;28;20042;-72
2021/06/18 08:15:05;;;;;;;13.02;11.75;;;23.50;99.90;;;;;;5099129;28;20059;-73
2021/06/18 08:17:31;;;;;;;12.60;11.10;;;23.50;99.90;;;;;;5097518;28;20032;-72
2021/06/18 08:19:57;;;;;;;12.45;11.25;;;23.30;99.90;;;;;;5091268;28;20065;-74
2021/06/18 08:22:23;;;;;;;13.57;12.25;;;23.20;99.90;;;;;;5092641;28;20098;-74
2021/06/18 08:24:49;;;;;;;13.50;12.10;;;23.20;99.90;;;;;;5091141;28;20051;-76
2021/06/18 08:27:15;;;;;;;13.15;11.93;;;23.30;99.90;;;;;;5055241;28;20481;-73
2021/06/18 08:29:41;;;;;;;13.57;12.18;;;23.20;99.90;;;;;;5092121;28;20123;-73
2021/06/18 08:32:07;;;;;;;15.50;12.35;;;23.30;99.90;;;;;;5089468;28;20036;-74
2021/06/18 08:34:34;;;;;;;14.55;13.02;;;23.30;99.90;;;;;;5086190;28;20043;-72
2021/06/18 08:37:00;;;;;;;14.48;13.07;;;23.40;99.90;;;;;;5091005;28;20055;-73
2021/06/18 08:39:26;;;;;;;14.57;13.02;;;23.60;99.90;;;;;;5060227;28;20047;-76
2021/06/18 08:41:51;;;;;;;13.45;12.15;;;23.80;99.90;;;;;;5091198;28;20040;-75
2021/06/18 08:44:19;;;;;;;13.98;12.57;;;24.10;99.90;;;;;;5091508;28;20044;-75
2021/06/18 08:46:46;;;;;;;14.40;12.93;;;24.50;99.90;;;;;;5092117;28;20044;-73
2021/06/18 08:49:12;;;;;;;13.90;12.50;;;24.80;99.90;;;;;;5091439;28;20537;-75
2021/06/18 08:51:38;;;;;;;14.10;12.60;;;25.00;99.90;;;;;;5091862;28;20040;-75
2021/06/18 08:54:04;;;;;;;13.85;12.25;;;25.20;99.90;;;;;;5090977;28;20492;-76
2021/06/18 08:56:30;;;;;;;13.45;12.13;;;25.30;99.90;;;;;;5063393;28;20075;-75
2021/06/18 08:58:56;;;;;;;13.45;12.15;;;25.30;99.90;;;;;;5086668;28;20063;-74
2021/06/18 09:01:22;;;;;;;13.07;11.48;;;25.30;99.90;;;;;;5091892;28;20040;-77
2021/06/18 09:03:49;;;;;;;13.35;12.07;;;25.30;99.90;;;;;;5091598;28;20089;-76
2021/06/18 09:06:21;;;;;;;13.20;11.90;;;25.30;99.90;;;;;;5090777;28;20063;-75
2021/06/18 09:09:07;;;;;;;13.30;10.73;;;25.40;99.90;;;;;;5090956;28;20044;-75
2021/06/18 09:11:55;;;;;;;10.25;9.25;;;25.40;99.90;;;;;;5090482;28;20181;-77
2021/06/18 09:14:31;;;;;;;11.63;10.13;;;25.30;99.90;;;;;;5079522;28;20047;-77
2021/06/18 09:17:15;;;;;;;11.50;9.38;;;25.10;99.90;;;;;;5091073;28;20426;-77
2021/06/18 09:19:42;;;;;;;10.52;9.43;;;25.10;99.90;;;;;;5091227;28;20103;-75
2021/06/18 09:22:10;;;;;;;10.27;9.15;;;25.00;99.90;;;;;;5090560;28;20476;-76
2021/06/18 09:24:40;;;;;;;12.52;9.15;;;25.00;99.90;;;;;;5091102;28;20121;-75
2021/06/18 09:27:06;;;;;;;10.95;9.90;;;25.00;99.90;;;;;;5088967;28;20117;-74
2021/06/18 09:29:32;;;;;;;11.48;10.30;;;25.00;99.90;;;;;;5091277;28;20044;-74
2021/06/18 09:32:00;;;;;;;12.48;10.07;;;24.80;99.90;;;;;;5090936;28;20042;-76
2021/06/18 09:34:42;;;;;;;9.60;8.60;;;24.60;99.90;;;;;;5091509;28;20456;-76
2021/06/18 09:37:18;;;;;;;11.05;10.05;;;24.40;99.90;;;;;;5057576;28;20056;-75
2021/06/18 09:39:56;;;;;;;10.50;9.40;;;24.40;99.90;;;;;;5087207;28;20427;-74
2021/06/18 09:42:24;;;;;;;14.27;9.52;;;24.60;99.90;;;;;;5090774;28;20089;-76
2021/06/18 09:45:08;;;;;;;11.00;9.90;;;24.80;99.90;;;;;;5054405;28;20047;-75
2021/06/18 09:47:35;;;;;;;11.55;10.43;;;24.90;99.90;;;;;;5085571;28;20097;-75
2021/06/18 09:50:03;;;;;;;12.13;10.93;;;25.10;99.90;;;;;;5090408;28;20032;-76
2021/06/18 09:52:29;;;;;;;11.90;10.63;;;25.40;99.90;;;;;;5073051;28;20032;-75
2021/06/18 09:54:55;;;;;;;13.07;11.23;;;25.60;99.90;;;;;;5090410;28;20040;-78
2021/06/18 09:57:24;;;;;;;13.27;11.20;;;25.60;99.90;;;;;;5090267;28;20066;-76
2021/06/18 09:59:51;;;;;;;12.63;11.43;;;25.60;99.90;;;;;;5090588;28;20028;-74
2021/06/18 10:02:18;;;;;;;13.52;10.75;;;25.50;99.90;;;;;;5059123;28;20045;-75
2021/06/18 10:04:45;;;;;;;12.52;11.23;;;25.50;99.90;;;;;;5090983;28;20431;-76
2021/06/18 10:07:11;;;;;;;12.32;11.02;;;25.60;99.90;;;;;;5072075;28;20086;-73
2021/06/18 10:09:38;;;;;;;12.15;10.40;;;25.60;99.90;;;;;;5094381;28;20036;-76
2021/06/18 10:12:08;;;;;;;13.13;10.73;;;25.60;99.90;;;;;;5092989;28;20059;-75
2021/06/18 10:14:34;;;;;;;11.50;10.20;;;25.70;99.90;;;;;;5094921;28;20036;-77
2021/06/18 10:17:01;;;;;;;11.93;10.82;;;25.70;99.90;;;;;;5094215;28;20133;-76
2021/06/18 10:19:29;;;;;;;10.80;9.13;;;25.80;99.90;;;;;;5097816;28;20040;-74
2021/06/18 10:22:11;;;;;;;11.60;10.32;;;25.90;99.90;;;;;;5094638;28;20032;-76
2021/06/18 10:24:47;;;;;;;11.52;9.80;;;26.10;99.90;;;;;;5094735;28;20039;-76
2021/06/18 10:27:16;;;;;;;10.73;9.63;;;26.40;99.90;;;;;;5080135;28;20039;-73
2021/06/18 10:29:42;;;;;;;11.32;9.18;;;26.40;99.90;;;;;;5094485;28;20040;-75
2021/06/18 10:32:27;;;;;;;10.25;9.25;;;26.50;99.90;;;;;;5091586;28;20055;-74
2021/06/18 10:34:53;;;;;;;11.25;10.10;;;26.90;99.90;;;;;;5091017;28;20051;-74
2021/06/18 10:37:22;;;;;;;11.88;10.02;;;27.10;99.90;;;;;;5094490;28;20048;-74
2021/06/18 10:40:09;;;;;;;10.25;9.10;;;27.00;99.90;;;;;;5094233;28;20063;-76
2021/06/18 10:42:35;;;;;;;9.90;9.00;;;26.90;99.90;;;;;;5094565;28;20058;-73
2021/06/18 10:45:04;;;;;;;10.40;9.38;;;26.80;99.90;;;;;;5094054;28;20040;-71
2021/06/18 10:47:31;;;;;;;10.75;9.68;;;26.60;99.90;;;;;;5062946;28;20047;-75
2021/06/18 10:49:59;;;;;;;10.40;9.32;;;26.60;99.90;;;;;;5094024;28;20059;-74
2021/06/18 10:52:33;;;;;;;11.07;9.85;;;26.60;99.90;;;;;;5094104;28;20058;-75
2021/06/18 10:54:59;;;;;;;10.50;9.50;;;26.60;99.90;;;;;;5092679;28;20073;-76
2021/06/18 10:57:30;;;;;;;11.90;9.80;;;26.50;99.90;;;;;;5075720;28;20466;-74
2021/06/18 11:00:09;;;;;;;11.45;10.30;;;26.40;99.90;;;;;;5092082;28;20042;-75
2021/06/18 11:02:39;;;;;;;12.10;8.98;;;26.30;99.90;;;;;;5094225;28;20107;-75
2021/06/18 11:05:26;;;;;;;10.85;9.75;;;26.20;99.90;;;;;;5063566;28;20066;-75
2021/06/18 11:08:15;;;;;;;11.05;10.05;;;26.10;99.90;;;;;;5055719;28;20041;-76
2021/06/18 11:10:40;;;;;;;11.30;10.10;;;26.00;99.90;;;;;;5090394;28;20043;-75
2021/06/18 11:13:09;;;;;;;11.15;9.63;;;25.80;99.90;;;;;;5092935;28;20039;-76
2021/06/18 11:15:43;;;;;;;10.65;9.32;;;25.80;99.90;;;;;;5093645;28;20111;-75
2021/06/18 11:18:29;;;;;;;9.35;8.48;;;25.90;99.90;;;;;;5063057;28;20040;-72
2021/06/18 11:20:56;;;;;;;9.67;8.77;;;25.80;99.90;;;;;;5092906;28;20036;-75
2021/06/18 11:23:32;;;;;;;9.60;8.68;;;25.50;99.90;;;;;;5092449;28;20066;-74
2021/06/18 11:26:06;;;;;;;9.57;8.68;;;25.40;99.90;;;;;;5073764;28;20119;-75
2021/06/18 11:28:35;;;;;;;11.32;9.15;;;25.50;99.90;;;;;;5093116;28;20481;-73
2021/06/18 11:31:22;;;;;;;9.38;8.30;;;25.70;99.90;;;;;;5093181;28;20043;-73
2021/06/18 11:33:59;;;;;;;9.10;8.10;;;26.00;99.90;;;;;;5089227;28;20036;-76
2021/06/18 11:36:25;;;;;;;8.43;7.70;;;26.10;99.90;;;;;;5092187;28;20477;-74
2021/06/18 11:39:10;;;;;;;9.68;7.57;;;26.00;99.90;;;;;;5093521;28;20069;-75
2021/06/18 11:41:42;;;;;;;7.90;7.10;;;25.70;99.90;;;;;;5055337;28;20037;-74
2021/06/18 11:44:10;;;;;;;8.82;7.75;;;25.40;99.90;;;;;;5068004;28;20386;-76
2021/06/18 11:46:37;;;;;;;9.25;8.00;;;25.20;99.90;;;;;;5079837;28;20036;-75
2021/06/18 11:49:19;;;;;;;9.70;8.18;;;25.10;99.90;;;;;;5092431;28;20098;-74
2021/06/18 11:51:46;;;;;;;10.05;9.05;;;24.90;99.90;;;;;;5092368;28;20036;-77
2021/06/18 11:54:44;;;;;;;10.00;8.90;;;24.70;99.90;;;;;;5092552;28;20055;-74
2021/06/18 11:57:15;;;;;;;10.23;8.43;;;24.60;99.90;;;;;;5027618;28;20059;-75
2021/06/18 11:59:49;;;;;;;10.13;9.07;;;24.70;99.90;;;;;;5066300;28;20133;-76
2021/06/18 12:02:23;;;;;;;10.35;9.35;;;24.90;99.90;;;;;;5087907;28;20067;-75
2021/06/18 12:05:01;;;;;;;10.75;9.27;;;25.00;99.90;;;;;;5092666;28;20058;-72
2021/06/18 12:07:34;;;;;;;10.75;9.63;;;24.80;99.90;;;;;;5092149;28;20047;-74
2021/06/18 12:10:01;;;;;;;10.27;8.98;;;24.80;99.90;;;;;;5091306;28;20040;-75
2021/06/18 12:12:27;;;;;;;11.95;9.63;;;24.80;99.90;;;;;;5092381;28;20044;-74
2021/06/18 12:14:57;;;;;;;10.80;9.45;;;24.60;99.90;;;;;;5061497;28;20462;-74
2021/06/18 12:17:25;;;;;;;11.15;10.00;;;24.50;99.90;;;;;;5071993;28;20037;-75
2021/06/18 12:19:53;;;;;;;10.68;9.57;;;24.50;99.90;;;;;;5085649;28;20031;-75
2021/06/18 12:22:22;;;;;;;11.80;9.57;;;24.40;99.90;;;;;;5091721;28;20039;-75
2021/06/18 12:24:50;;;;;;;13.07;10.43;;;24.50;99.90;;;;;;5073115;28;20046;-74
2021/06/18 12:27:22;;;;;;;11.30;10.15;;;24.40;99.90;;;;;;5078183;28;20044;-76
2021/06/18 12:29:57;;;;;;;12.52;10.80;;;24.20;99.90;;;;;;5092379;28;20388;-74
2021/06/18 12:32:26;;;;;;;11.93;10.23;;;24.20;99.90;;;;;;5070056;28;20040;-76
2021/06/18 12:34:57;;;;;;;12.73;11.20;;;24.10;99.90;;;;;;5089057;28;20123;-75
2021/06/18 12:37:30;;;;;;;11.98;10.77;;;24.20;99.90;;;;;;5091481;28;20491;-75
2021/06/18 12:40:04;;;;;;;13.18;11.23;;;24.20;99.90;;;;;;5054867;28;20127;-75
2021/06/18 12:42:38;;;;;;;10.77;9.68;;;24.60;99.90;;;;;;5084804;28;20032;-76